Time;durP1;ratioP1;P1;durP2;ratioP2;P2;SDS_P1;SDS_P2;PMS_P1;PMS_P2;Temp;Humidity;BMP_temperature;BMP_pressure;BME280_temperature;BME280_humidity;BME280_pressure;Samples;Min_cycle;Max_cycle;Signal;HPM_P1;HPM_P2
2022/11/13 00:01:10;;;;;;;92.72;27.95;;;6.60;1.00;;;;;;5072549;28;20578;-74
2022/11/13 00:03:37;;;;;;;111.43;34.63;;;6.70;1.00;;;;;;5072496;28;20206;-74
2022/11/13 00:06:04;;;;;;;103.82;29.13;;;6.60;1.00;;;;;;5072477;28;20604;-75
2022/11/13 00:08:32;;;;;;;98.22;29.10;;;6.50;1.00;;;;;;5071866;28;20225;-74
2022/11/13 00:11:03;;;;;;;90.35;25.85;;;6.70;1.00;;;;;;5072421;28;20207;-74
2022/11/13 00:13:30;;;;;;;94.90;26.02;;;6.50;1.00;;;;;;5072290;28;20215;-74
2022/11/13 00:15:58;;;;;;;95.32;26.00;;;6.40;1.00;;;;;;5072312;28;20204;-74
2022/11/13 00:18:26;;;;;;;86.15;25.23;;;6.40;1.00;;;;;;5072094;28;20225;-74
2022/11/13 00:20:53;;;;;;;84.80;23.42;;;6.10;1.00;;;;;;5071687;28;20211;-74
2022/11/13 00:23:20;;;;;;;118.25;22.65;;;5.70;1.00;;;;;;5072266;28;20690;-74
2022/11/13 00:25:47;;;;;;;88.97;23.35;;;5.30;1.00;;;;;;5072031;28;20209;-74
2022/11/13 00:28:13;;;;;;;115.55;27.50;;;5.40;1.00;;;;;;5071818;28;20720;-74
2022/11/13 00:30:40;;;;;;;94.93;22.90;;;5.30;1.00;;;;;;5071634;28;20209;-74
2022/11/13 00:33:07;;;;;;;104.43;23.83;;;5.10;1.00;;;;;;5072194;28;20205;-74
2022/11/13 00:35:35;;;;;;;115.13;23.55;;;4.90;1.00;;;;;;5072436;28;20209;-74
2022/11/13 00:38:02;;;;;;;92.55;22.42;;;5.10;1.00;;;;;;5071960;28;20228;-74
2022/11/13 00:40:29;;;;;;;81.78;21.55;;;5.40;1.00;;;;;;5071283;28;20589;-74
2022/11/13 00:42:56;;;;;;;108.25;26.05;;;5.80;1.00;;;;;;5071863;28;20201;-74
2022/11/13 00:45:22;;;;;;;85.55;23.25;;;5.80;1.00;;;;;;5072112;28;20213;-74
2022/11/13 00:47:49;;;;;;;91.72;24.50;;;6.10;1.00;;;;;;5071927;28;20275;-74
2022/11/13 00:50:16;;;;;;;86.05;22.10;;;6.00;1.00;;;;;;5071272;28;20207;-74
2022/11/13 00:52:45;;;;;;;87.28;22.05;;;5.90;1.00;;;;;;5071970;28;20223;-74
2022/11/13 00:55:11;;;;;;;112.38;23.33;;;6.00;1.00;;;;;;5071726;28;20209;-74
2022/11/13 00:57:38;;;;;;;99.40;24.20;;;5.90;1.00;;;;;;5071971;28;20221;-74
2022/11/13 01:00:06;;;;;;;88.65;20.77;;;6.20;1.00;;;;;;5070977;28;20201;-74
2022/11/13 01:02:33;;;;;;;95.10;20.65;;;5.80;1.00;;;;;;5072096;28;20205;-74
2022/11/13 01:05:00;;;;;;;76.03;16.70;;;6.00;1.00;;;;;;5071652;28;20215;-74
2022/11/13 01:07:27;;;;;;;77.70;18.60;;;6.20;1.00;;;;;;5071630;28;20233;-74
2022/11/13 01:09:55;;;;;;;81.25;18.00;;;6.20;1.00;;;;;;5070846;28;20209;-74
2022/11/13 01:12:22;;;;;;;101.90;21.83;;;5.90;1.00;;;;;;5071811;28;20288;-74
2022/11/13 01:14:49;;;;;;;84.65;20.23;;;5.90;1.00;;;;;;5071527;28;20205;-74
2022/11/13 01:17:15;;;;;;;88.30;21.08;;;5.90;1.00;;;;;;5071783;28;20208;-74
2022/11/13 01:19:42;;;;;;;76.43;17.40;;;6.00;1.00;;;;;;5070750;28;20205;-74
2022/11/13 01:22:09;;;;;;;87.65;19.08;;;6.20;1.00;;;;;;5071448;28;20681;-74
2022/11/13 01:24:36;;;;;;;88.85;21.40;;;6.30;1.00;;;;;;5071358;28;20288;-74
2022/11/13 01:27:04;;;;;;;92.90;20.35;;;6.20;1.00;;;;;;5071699;28;20225;-74
2022/11/13 01:29:31;;;;;;;91.97;18.83;;;6.00;1.00;;;;;;5070899;28;20216;-74
2022/11/13 01:31:57;;;;;;;76.97;18.63;;;6.10;1.00;;;;;;5071400;28;20205;-74
2022/11/13 01:34:24;;;;;;;75.85;18.65;;;6.10;1.00;;;;;;5071349;28;20209;-74
2022/11/13 01:36:51;;;;;;;83.72;19.67;;;6.30;1.00;;;;;;5071427;28;20297;-74
2022/11/13 01:39:18;;;;;;;79.95;17.10;;;6.10;1.00;;;;;;5073813;28;20231;-74
2022/11/13 01:41:45;;;;;;;91.85;19.42;;;6.20;1.00;;;;;;5075283;28;20209;-74
2022/11/13 01:44:15;;;;;;;78.55;17.60;;;6.30;1.00;;;;;;5075491;28;20223;-74
2022/11/13 01:46:45;;;;;;;77.07;17.73;;;6.40;1.00;;;;;;5075218;28;20227;-74
2022/11/13 01:49:28;;;;;;;93.88;19.73;;;6.40;1.00;;;;;;5074251;28;20270;-74
2022/11/13 01:51:57;;;;;;;86.35;20.00;;;6.50;1.00;;;;;;5075389;28;20633;-74
2022/11/13 01:54:28;;;;;;;75.50;17.67;;;6.50;1.00;;;;;;5074583;28;20205;-74
2022/11/13 01:56:56;;;;;;;77.03;18.48;;;6.70;1.00;;;;;;5075100;28;20201;-74
2022/11/13 01:59:28;;;;;;;125.65;20.77;;;6.70;1.00;;;;;;5073888;28;20232;-74
2022/11/13 02:01:55;;;;;;;108.68;21.45;;;6.50;1.00;;;;;;5074814;28;20227;-74
2022/11/13 02:04:22;;;;;;;92.20;19.92;;;6.20;1.00;;;;;;5074704;28;20254;-74
2022/11/13 02:06:52;;;;;;;94.88;16.98;;;6.00;1.00;;;;;;5074437;28;20225;-74
2022/11/13 02:09:24;;;;;;;126.32;19.05;;;5.70;1.00;;;;;;5074011;28;20225;-74
2022/11/13 02:11:52;;;;;;;78.70;17.20;;;5.60;1.00;;;;;;5074727;28;20209;-74
2022/11/13 02:14:20;;;;;;;109.18;18.77;;;5.70;1.00;;;;;;5074647;28;20204;-74
2022/11/13 02:16:52;;;;;;;92.45;18.95;;;5.70;1.00;;;;;;5074472;28;20207;-74
2022/11/13 02:19:25;;;;;;;134.35;23.45;;;5.70;1.00;;;;;;5070756;28;20228;-74
2022/11/13 02:21:58;;;;;;;117.45;21.60;;;5.40;1.00;;;;;;5074344;28;20205;-74
2022/11/13 02:24:29;;;;;;;126.20;20.48;;;5.40;1.00;;;;;;5074639;28;20232;-74
2022/11/13 02:27:00;;;;;;;108.28;19.42;;;5.50;1.00;;;;;;5074456;28;20228;-74
2022/11/13 02:29:27;;;;;;;159.80;22.80;;;5.70;1.00;;;;;;5073582;28;20229;-74
2022/11/13 02:31:54;;;;;;;223.68;26.25;;;5.70;1.00;;;;;;5074268;28;20396;-74
2022/11/13 02:34:21;;;;;;;139.40;21.77;;;5.30;1.00;;;;;;5074234;28;20209;-74
2022/11/13 02:36:48;;;;;;;114.13;19.95;;;5.30;1.00;;;;;;5074342;28;20580;-74
2022/11/13 02:39:15;;;;;;;99.95;19.42;;;5.40;1.00;;;;;;5073450;28;20221;-74
2022/11/13 02:41:43;;;;;;;110.93;19.08;;;5.40;1.00;;;;;;5074266;28;20201;-74
2022/11/13 02:44:10;;;;;;;104.60;18.70;;;5.30;1.00;;;;;;5073861;28;20205;-74
2022/11/13 02:46:37;;;;;;;182.82;24.80;;;5.10;1.00;;;;;;5073931;28;20229;-74
2022/11/13 02:49:04;;;;;;;101.78;19.83;;;5.10;1.00;;;;;;5072332;28;20231;-74
2022/11/13 02:51:31;;;;;;;151.70;23.50;;;5.10;1.00;;;;;;5073663;28;20209;-74
2022/11/13 02:53:58;;;;;;;120.32;20.42;;;5.20;1.00;;;;;;5073806;28;20672;-74
2022/11/13 02:56:25;;;;;;;158.45;22.85;;;5.20;1.00;;;;;;5073930;28;20574;-74
2022/11/13 02:58:53;;;;;;;202.90;24.45;;;5.20;1.00;;;;;;5072879;28;20225;-74
2022/11/13 03:01:20;;;;;;;140.70;23.02;;;5.10;1.00;;;;;;5074003;28;20553;-74
2022/11/13 03:03:47;;;;;;;138.40;23.00;;;4.70;1.00;;;;;;5073878;28;20295;-74
2022/11/13 03:06:13;;;;;;;132.25;21.95;;;4.60;1.00;;;;;;5073797;28;20205;-74
2022/11/13 03:08:40;;;;;;;136.60;22.17;;;4.50;1.00;;;;;;5072767;28;20225;-73
2022/11/13 03:11:09;;;;;;;134.13;23.15;;;4.60;1.00;;;;;;5073654;28;20216;-73
2022/11/13 03:13:36;;;;;;;142.40;22.08;;;4.80;1.00;;;;;;5073365;28;20240;-73
2022/11/13 03:16:09;;;;;;;119.10;21.20;;;5.00;1.00;;;;;;5073616;28;20209;-73
2022/11/13 03:18:36;;;;;;;161.85;23.50;;;5.20;1.00;;;;;;5072751;28;20221;-73
2022/11/13 03:21:07;;;;;;;146.43;21.73;;;5.10;1.00;;;;;;5073507;28;20205;-73
2022/11/13 03:23:34;;;;;;;136.48;21.20;;;4.70;1.00;;;;;;5073311;28;20213;-73
2022/11/13 03:26:04;;;;;;;127.13;21.42;;;4.30;1.00;;;;;;5073074;28;20595;-73
2022/11/13 03:28:31;;;;;;;106.85;21.25;;;4.10;1.00;;;;;;5072948;28;20435;-73
2022/11/13 03:30:57;;;;;;;90.03;18.08;;;4.80;1.00;;;;;;5072879;28;20258;-73
2022/11/13 03:33:26;;;;;;;139.10;20.08;;;5.10;1.00;;;;;;5072922;28;20213;-73
2022/11/13 03:35:53;;;;;;;111.57;19.17;;;5.10;1.00;;;;;;5073286;28;20208;-73
2022/11/13 03:38:20;;;;;;;97.97;18.48;;;4.90;1.00;;;;;;5072700;28;20247;-73
2022/11/13 03:40:46;;;;;;;96.57;18.42;;;5.30;1.00;;;;;;5072526;28;20205;-73
2022/11/13 03:43:13;;;;;;;97.85;17.33;;;5.50;1.00;;;;;;5073169;28;20699;-73
2022/11/13 03:45:40;;;;;;;107.93;19.00;;;5.50;1.00;;;;;;5072954;28;20202;-73
2022/11/13 03:48:08;;;;;;;118.78;20.45;;;5.70;1.00;;;;;;5072673;28;20253;-73
2022/11/13 03:50:36;;;;;;;113.57;20.30;;;5.80;1.00;;;;;;5071769;28;20216;-73
2022/11/13 03:53:03;;;;;;;79.97;15.68;;;5.50;1.00;;;;;;5072654;28;20243;-73
2022/11/13 03:55:29;;;;;;;109.60;20.27;;;5.70;1.00;;;;;;5072958;28;20201;-73
2022/11/13 03:57:56;;;;;;;101.82;21.48;;;5.90;1.00;;;;;;5072701;28;20343;-73
2022/11/13 04:00:23;;;;;;;98.18;18.98;;;5.90;1.00;;;;;;5071637;28;20205;-73
2022/11/13 04:02:50;;;;;;;99.65;19.90;;;5.80;1.00;;;;;;5072541;28;20209;-73
2022/11/13 04:05:17;;;;;;;70.50;15.68;;;5.60;1.00;;;;;;5072380;28;20558;-73
2022/11/13 04:07:45;;;;;;;73.13;16.33;;;5.60;1.00;;;;;;5072214;28;20240;-73
2022/11/13 04:10:12;;;;;;;82.65;16.27;;;5.60;1.00;;;;;;5071817;28;20254;-74
2022/11/13 04:12:39;;;;;;;77.88;17.63;;;5.60;1.00;;;;;;5072395;28;20300;-73
2022/11/13 04:15:06;;;;;;;78.28;18.95;;;5.50;1.00;;;;;;5072237;28;20216;-72
2022/11/13 04:17:33;;;;;;;94.40;19.40;;;5.70;1.00;;;;;;5072201;28;20227;-72
2022/11/13 04:20:00;;;;;;;109.22;22.30;;;6.00;1.00;;;;;;5071532;28;20201;-73
2022/11/13 04:22:27;;;;;;;102.80;18.90;;;5.80;1.00;;;;;;5071988;28;20217;-73
2022/11/13 04:24:55;;;;;;;101.13;18.70;;;5.30;1.00;;;;;;5071952;28;20670;-73
2022/11/13 04:27:22;;;;;;;95.55;19.98;;;5.30;1.00;;;;;;5071664;28;20225;-73
2022/11/13 04:29:49;;;;;;;83.35;18.30;;;5.30;1.00;;;;;;5071125;28;20669;-73
2022/11/13 04:32:15;;;;;;;119.05;19.70;;;5.00;1.00;;;;;;5071763;28;20201;-74
2022/11/13 04:34:42;;;;;;;96.30;17.08;;;4.90;1.00;;;;;;5071917;28;20723;-74
2022/11/13 04:37:09;;;;;;;100.03;17.77;;;4.80;1.00;;;;;;5072113;28;20205;-74
2022/11/13 04:39:36;;;;;;;92.97;18.15;;;5.00;1.00;;;;;;5071401;28;20585;-74
2022/11/13 04:44:48;;;;;;;78.07;17.23;;;4.80;1.00;;;;;;5071990;28;20212;-74
2022/11/13 04:47:15;;;;;;;112.57;19.75;;;4.80;1.00;;;;;;5071654;28;20231;-74
2022/11/13 04:49:42;;;;;;;99.63;18.85;;;4.90;1.00;;;;;;5070764;28;20209;-74
2022/11/13 04:52:09;;;;;;;104.53;18.58;;;5.20;1.00;;;;;;5072064;28;20205;-74
2022/11/13 04:54:36;;;;;;;89.00;18.42;;;5.00;1.00;;;;;;5071969;28;20204;-74
2022/11/13 04:57:04;;;;;;;96.60;19.50;;;5.20;1.00;;;;;;5071847;28;20201;-74
2022/11/13 04:59:31;;;;;;;96.78;18.65;;;5.00;1.00;;;;;;5071027;28;20205;-74
2022/11/13 05:01:58;;;;;;;93.38;17.70;;;5.30;1.00;;;;;;5071682;28;20212;-74
2022/11/13 05:04:25;;;;;;;142.95;19.40;;;5.10;1.00;;;;;;5071899;28;20208;-74
2022/11/13 05:06:52;;;;;;;89.68;18.10;;;5.00;1.00;;;;;;5071484;28;20209;-74
2022/11/13 05:09:19;;;;;;;83.47;16.75;;;5.00;1.00;;;;;;5070901;28;20228;-74
2022/11/13 05:11:45;;;;;;;97.68;19.10;;;5.20;1.00;;;;;;5071745;28;20216;-74
2022/11/13 05:14:14;;;;;;;88.22;18.55;;;5.10;1.00;;;;;;5074617;28;20677;-75
2022/11/13 05:16:41;;;;;;;115.40;19.02;;;5.10;1.00;;;;;;5075705;28;20216;-75
2022/11/13 05:19:08;;;;;;;105.50;21.20;;;5.00;1.00;;;;;;5074835;28;20717;-75
2022/11/13 05:21:36;;;;;;;100.93;19.27;;;5.20;1.00;;;;;;5075535;28;20209;-75
2022/11/13 05:24:04;;;;;;;96.28;20.33;;;5.00;1.00;;;;;;5075704;28;20201;-75
2022/11/13 05:26:31;;;;;;;99.32;21.38;;;4.90;1.00;;;;;;5075460;28;20215;-75
2022/11/13 05:28:58;;;;;;;95.63;18.85;;;5.20;1.00;;;;;;5074479;28;20255;-75
2022/11/13 05:31:27;;;;;;;84.70;18.75;;;5.50;1.00;;;;;;5075439;28;20211;-75
2022/11/13 05:33:54;;;;;;;73.95;16.60;;;5.50;1.00;;;;;;5075590;28;20295;-75
2022/11/13 05:36:22;;;;;;;88.40;18.85;;;5.50;1.00;;;;;;5075273;28;20208;-76
2022/11/13 05:38:50;;;;;;;84.65;17.88;;;5.60;1.00;;;;;;5074506;28;20712;-75
2022/11/13 05:41:18;;;;;;;76.63;17.77;;;5.60;1.00;;;;;;5075298;28;20211;-75
2022/11/13 05:43:46;;;;;;;93.53;18.13;;;5.90;1.00;;;;;;5075168;28;20217;-75
2022/11/13 05:46:16;;;;;;;71.50;15.32;;;6.00;1.00;;;;;;5075245;28;20767;-75
2022/11/13 05:48:45;;;;;;;72.22;15.75;;;6.20;1.00;;;;;;5074178;28;20231;-76
2022/11/13 05:51:14;;;;;;;91.22;20.17;;;6.30;1.00;;;;;;5075069;28;20219;-75
2022/11/13 05:53:41;;;;;;;73.47;18.10;;;6.10;1.00;;;;;;5075086;28;20295;-75
2022/11/13 05:56:12;;;;;;;80.47;17.77;;;6.00;1.00;;;;;;5074848;28;20208;-75
2022/11/13 05:58:39;;;;;;;75.43;17.88;;;5.90;1.00;;;;;;5074268;28;20221;-75
2022/11/13 06:01:08;;;;;;;76.28;17.17;;;6.10;1.00;;;;;;5075007;28;20205;-75
2022/11/13 06:03:35;;;;;;;83.57;19.40;;;6.30;1.00;;;;;;5074964;28;20579;-75
2022/11/13 06:06:04;;;;;;;116.75;19.88;;;6.40;1.00;;;;;;5074882;28;20299;-75
2022/11/13 06:08:31;;;;;;;93.55;18.23;;;6.20;1.00;;;;;;5074243;28;20228;-75
2022/11/13 06:11:01;;;;;;;76.40;15.88;;;5.60;1.00;;;;;;5074700;28;20207;-75
2022/11/13 06:13:29;;;;;;;86.47;18.70;;;5.60;1.00;;;;;;5074719;28;20208;-75
2022/11/13 06:16:01;;;;;;;101.13;18.55;;;5.40;1.00;;;;;;5074734;28;20201;-76
2022/11/13 06:18:27;;;;;;;82.45;17.55;;;5.30;1.00;;;;;;5074382;28;20225;-76
2022/11/13 06:20:54;;;;;;;97.43;19.67;;;5.50;1.00;;;;;;5074025;28;20201;-76
2022/11/13 06:23:23;;;;;;;76.32;16.45;;;5.70;1.00;;;;;;5074122;28;20772;-76
2022/11/13 06:25:49;;;;;;;81.13;17.95;;;5.60;1.00;;;;;;5074411;28;20208;-76
2022/11/13 06:28:16;;;;;;;74.43;15.85;;;5.80;1.00;;;;;;5074127;28;20225;-75
2022/11/13 06:30:43;;;;;;;78.10;16.90;;;5.80;1.00;;;;;;5073849;28;20223;-75
2022/11/13 06:33:10;;;;;;;135.65;23.02;;;5.80;1.00;;;;;;5074810;28;20212;-75
2022/11/13 06:35:36;;;;;;;139.68;22.15;;;5.70;1.00;;;;;;5074216;28;20205;-75
2022/11/13 06:38:03;;;;;;;71.95;15.38;;;5.40;1.00;;;;;;5074323;28;20225;-75
2022/11/13 06:40:31;;;;;;;116.10;20.77;;;5.40;1.00;;;;;;5073725;28;20205;-75
2022/11/13 06:42:58;;;;;;;80.10;16.17;;;5.60;1.00;;;;;;5074101;28;20212;-75
2022/11/13 06:45:25;;;;;;;116.22;18.23;;;5.90;1.00;;;;;;5074160;28;20201;-75
2022/11/13 06:47:53;;;;;;;80.63;16.20;;;6.00;1.00;;;;;;5073875;28;20315;-75
2022/11/13 06:50:20;;;;;;;71.18;14.73;;;5.80;1.00;;;;;;5073152;28;20215;-75
2022/11/13 06:52:47;;;;;;;75.35;15.25;;;5.80;1.00;;;;;;5074015;28;20215;-75
2022/11/13 06:55:14;;;;;;;71.15;14.43;;;5.90;1.00;;;;;;5074092;28;20219;-75
2022/11/13 06:57:42;;;;;;;74.90;14.60;;;6.10;1.00;;;;;;5073865;28;20231;-75
2022/11/13 07:00:10;;;;;;;73.35;17.00;;;6.20;1.00;;;;;;5073142;28;20205;-75
2022/11/13 07:02:37;;;;;;;72.03;15.50;;;6.10;1.00;;;;;;5073772;28;20205;-77
2022/11/13 07:05:04;;;;;;;70.60;14.43;;;6.20;1.00;;;;;;5073926;28;20209;-76
2022/11/13 07:07:31;;;;;;;112.05;19.05;;;6.30;1.00;;;;;;5073706;28;20604;-76
2022/11/13 07:09:58;;;;;;;76.70;15.30;;;6.30;1.00;;;;;;5072973;28;20205;-76
2022/11/13 07:12:25;;;;;;;71.20;16.02;;;6.20;1.00;;;;;;5073660;28;20205;-76
2022/11/13 07:14:53;;;;;;;104.15;18.33;;;6.20;1.00;;;;;;5073552;28;20291;-75
2022/11/13 07:17:19;;;;;;;79.18;17.20;;;6.30;1.00;;;;;;5073356;28;20208;-76
2022/11/13 07:19:46;;;;;;;73.55;16.65;;;6.40;1.00;;;;;;5072579;28;20215;-76
2022/11/13 07:22:13;;;;;;;89.43;17.13;;;6.50;1.00;;;;;;5073383;28;20213;-76
2022/11/13 07:24:41;;;;;;;71.20;15.10;;;6.60;1.00;;;;;;5073290;28;20212;-76
2022/11/13 07:27:08;;;;;;;71.03;16.13;;;6.60;1.00;;;;;;5073183;28;20209;-74
2022/11/13 07:29:35;;;;;;;77.60;16.58;;;6.70;1.00;;;;;;5072521;28;20236;-73
2022/11/13 07:32:04;;;;;;;91.43;18.17;;;6.70;1.00;;;;;;5073156;28;20555;-74
2022/11/13 07:34:30;;;;;;;87.13;17.20;;;6.80;1.00;;;;;;5073297;28;20201;-74
2022/11/13 07:36:57;;;;;;;72.30;16.42;;;6.90;1.00;;;;;;5072544;28;20335;-73
2022/11/13 07:39:24;;;;;;;86.60;17.55;;;6.90;1.00;;;;;;5072250;28;20217;-74
2022/11/13 07:41:51;;;;;;;83.35;16.42;;;7.00;1.00;;;;;;5072999;28;20291;-74
2022/11/13 07:44:18;;;;;;;75.25;16.77;;;7.00;1.00;;;;;;5073089;28;20349;-74
2022/11/13 07:46:44;;;;;;;72.05;15.60;;;6.90;1.00;;;;;;5073114;28;20244;-74
2022/11/13 07:49:13;;;;;;;78.47;16.45;;;7.00;1.00;;;;;;5071892;28;20225;-74
2022/11/13 07:51:39;;;;;;;77.95;16.25;;;6.80;1.00;;;;;;5072882;28;20211;-74
2022/11/13 07:54:06;;;;;;;75.95;15.48;;;6.90;1.00;;;;;;5073192;28;20207;-74
2022/11/13 07:56:33;;;;;;;74.32;15.60;;;6.50;1.00;;;;;;5072627;28;20235;-73
2022/11/13 07:59:00;;;;;;;76.07;15.80;;;6.40;1.00;;;;;;5071792;28;20709;-74
2022/11/13 08:01:27;;;;;;;71.50;15.20;;;6.50;1.00;;;;;;5072858;28;20213;-74
2022/11/13 08:03:53;;;;;;;76.78;15.45;;;6.80;1.00;;;;;;5072721;28;20211;-74
2022/11/13 08:06:22;;;;;;;79.13;16.08;;;6.90;1.00;;;;;;5072946;28;20215;-73
2022/11/13 08:08:49;;;;;;;73.00;16.05;;;7.00;1.00;;;;;;5071628;28;20586;-73
2022/11/13 08:11:16;;;;;;;85.78;18.90;;;7.10;1.00;;;;;;5072499;28;20296;-73
2022/11/13 08:13:43;;;;;;;101.10;17.63;;;7.30;1.00;;;;;;5072348;28;20212;-73
2022/11/13 08:16:10;;;;;;;72.93;15.55;;;6.30;1.00;;;;;;5072504;28;20306;-72
2022/11/13 08:18:37;;;;;;;73.93;14.18;;;6.40;1.00;;;;;;5071654;28;20221;-73
2022/11/13 08:21:05;;;;;;;92.05;17.27;;;6.80;1.00;;;;;;5072230;28;20704;-73
2022/11/13 08:23:33;;;;;;;90.95;15.80;;;6.80;1.00;;;;;;5072191;28;20213;-73
2022/11/13 08:26:04;;;;;;;86.95;15.82;;;6.60;1.00;;;;;;5072073;28;20489;-73
2022/11/13 08:28:31;;;;;;;72.28;15.35;;;6.90;1.00;;;;;;5071681;28;20271;-73
2022/11/13 08:30:58;;;;;;;74.72;15.55;;;7.10;1.00;;;;;;5072049;28;20201;-73
2022/11/13 08:33:25;;;;;;;70.75;12.88;;;7.20;1.00;;;;;;5072222;28;20216;-74
2022/11/13 08:35:53;;;;;;;72.78;14.90;;;7.20;1.00;;;;;;5072598;28;20209;-73
2022/11/13 08:38:20;;;;;;;74.13;14.52;;;7.80;1.00;;;;;;5071878;28;20701;-73
2022/11/13 08:40:48;;;;;;;73.90;14.10;;;8.20;1.00;;;;;;5071201;28;20201;-73
2022/11/13 08:43:15;;;;;;;69.28;14.68;;;8.30;1.00;;;;;;5072102;28;20232;-73
2022/11/13 08:45:44;;;;;;;88.15;15.05;;;8.40;1.00;;;;;;5072079;28;20205;-74
2022/11/13 08:48:11;;;;;;;72.63;13.35;;;8.40;1.00;;;;;;5071588;28;20225;-74
2022/11/13 08:50:39;;;;;;;68.22;12.55;;;8.30;1.00;;;;;;5070869;28;20213;-73
2022/11/13 08:53:06;;;;;;;69.60;13.10;;;8.20;1.00;;;;;;5072319;28;20209;-73
2022/11/13 08:55:34;;;;;;;67.55;12.10;;;8.10;1.00;;;;;;5071981;28;20213;-73
2022/11/13 08:58:04;;;;;;;66.75;11.55;;;8.10;1.00;;;;;;5071744;28;20222;-73
2022/11/13 09:00:32;;;;;;;70.80;12.13;;;7.80;1.00;;;;;;5071110;28;20220;-73
2022/11/13 09:03:00;;;;;;;67.75;12.25;;;7.70;1.00;;;;;;5071700;28;20205;-73
2022/11/13 09:05:27;;;;;;;67.60;11.82;;;7.40;1.00;;;;;;5071727;28;20298;-73
2022/11/13 09:07:57;;;;;;;66.20;11.50;;;7.40;1.00;;;;;;5071469;28;20233;-73
2022/11/13 09:10:24;;;;;;;69.28;12.82;;;7.50;1.00;;;;;;5071028;28;20233;-73
2022/11/13 09:12:56;;;;;;;67.90;13.05;;;7.10;1.00;;;;;;5071635;28;20693;-72
2022/11/13 09:15:25;;;;;;;75.33;12.60;;;7.50;1.00;;;;;;5071606;28;20216;-72
2022/11/13 09:17:52;;;;;;;74.88;15.77;;;7.60;1.00;;;;;;5071614;28;20467;-72
2022/11/13 09:20:18;;;;;;;71.78;14.98;;;7.60;1.00;;;;;;5070765;28;20256;-72
2022/11/13 09:22:45;;;;;;;70.07;14.65;;;7.80;1.00;;;;;;5071779;28;20573;-73
2022/11/13 09:25:12;;;;;;;72.28;15.70;;;7.90;1.00;;;;;;5071657;28;20212;-73
2022/11/13 09:27:39;;;;;;;73.22;15.52;;;8.20;1.00;;;;;;5071581;28;20220;-72
2022/11/13 09:30:07;;;;;;;70.85;14.77;;;8.30;1.00;;;;;;5070654;28;20231;-72
2022/11/13 09:32:35;;;;;;;70.85;15.18;;;8.40;1.00;;;;;;5071402;28;20216;-73
2022/11/13 09:35:02;;;;;;;78.45;16.85;;;8.60;1.00;;;;;;5071657;28;20209;-72
2022/11/13 09:37:31;;;;;;;75.30;16.23;;;8.20;1.00;;;;;;5071532;28;20236;-72
2022/11/13 09:39:58;;;;;;;71.20;15.70;;;8.00;1.00;;;;;;5070951;28;20247;-72
2022/11/13 09:42:29;;;;;;;72.43;16.15;;;7.80;1.00;;;;;;5071550;28;20212;-72
2022/11/13 09:45:00;;;;;;;70.50;15.07;;;8.10;1.00;;;;;;5071371;28;20212;-72
2022/11/13 09:47:30;;;;;;;70.95;14.82;;;8.40;1.00;;;;;;5071190;28;20236;-72
2022/11/13 09:50:02;;;;;;;71.78;15.10;;;8.70;1.00;;;;;;5070382;28;20317;-72
2022/11/13 09:52:33;;;;;;;75.70;16.77;;;8.70;1.00;;;;;;5071336;28;20205;-72
2022/11/13 09:55:00;;;;;;;67.00;12.50;;;8.60;1.00;;;;;;5071357;28;20452;-72
2022/11/13 09:57:33;;;;;;;69.65;13.63;;;8.50;1.00;;;;;;5071164;28;20228;-72
2022/11/13 10:00:03;;;;;;;73.25;14.50;;;8.50;1.00;;;;;;5073189;28;20573;-72
2022/11/13 10:02:42;;;;;;;70.43;13.70;;;8.80;1.00;;;;;;5075293;28;20210;-74
2022/11/13 10:05:21;;;;;;;68.95;13.85;;;8.70;1.00;;;;;;5074838;28;20452;-73
2022/11/13 10:07:56;;;;;;;69.40;14.23;;;8.80;1.00;;;;;;5074710;28;20228;-73
2022/11/13 10:10:44;;;;;;;71.13;15.30;;;9.00;1.00;;;;;;5074332;28;20229;-73
2022/11/13 10:13:15;;;;;;;69.85;13.30;;;9.20;1.00;;;;;;5074882;28;20536;-73
2022/11/13 10:15:44;;;;;;;67.77;13.07;;;9.30;1.00;;;;;;5074917;28;20303;-73
2022/11/13 10:18:16;;;;;;;68.60;13.43;;;9.50;1.00;;;;;;5074538;28;20470;-73
2022/11/13 10:20:49;;;;;;;69.50;13.87;;;9.60;1.00;;;;;;5073857;28;20449;-73
2022/11/13 10:23:19;;;;;;;70.18;14.30;;;9.40;1.00;;;;;;5074444;28;20551;-72
2022/11/13 10:25:50;;;;;;;69.90;13.63;;;9.00;1.00;;;;;;5074509;28;20217;-73
2022/11/13 10:28:18;;;;;;;69.40;14.27;;;8.80;1.00;;;;;;5074522;28;20481;-73
2022/11/13 10:30:46;;;;;;;70.10;13.48;;;8.20;1.00;;;;;;5073802;28;20491;-73
2022/11/13 10:33:17;;;;;;;71.20;14.43;;;8.00;1.00;;;;;;5074504;28;20210;-73
2022/11/13 10:35:52;;;;;;;70.80;14.95;;;8.10;1.00;;;;;;5074329;28;21007;-73
2022/11/13 10:38:24;;;;;;;70.17;14.43;;;8.30;1.00;;;;;;5074254;28;20231;-73
2022/11/13 10:40:52;;;;;;;70.23;14.93;;;8.40;1.00;;;;;;5073750;28;20811;-73
2022/11/13 10:43:21;;;;;;;70.13;15.27;;;8.60;1.00;;;;;;5074208;28;20459;-73
2022/11/13 10:45:55;;;;;;;72.90;15.47;;;8.80;1.00;;;;;;5074082;28;20999;-73
2022/11/13 10:48:25;;;;;;;72.67;15.90;;;8.50;1.00;;;;;;5074048;28;20464;-73
2022/11/13 10:51:01;;;;;;;72.40;15.60;;;8.40;1.00;;;;;;5073786;28;20994;-73
2022/11/13 10:53:37;;;;;;;70.97;16.30;;;8.60;1.00;;;;;;5074170;28;20817;-73
2022/11/13 10:56:14;;;;;;;69.07;14.50;;;9.00;1.00;;;;;;5073997;28;20465;-73
2022/11/13 10:58:41;;;;;;;70.13;14.17;;;9.50;1.00;;;;;;5073336;28;20469;-73
2022/11/13 11:01:14;;;;;;;67.70;13.37;;;9.90;1.00;;;;;;5073955;28;20981;-73
2022/11/13 11:03:48;;;;;;;68.17;14.17;;;10.00;1.00;;;;;;5073905;28;20460;-73
2022/11/13 11:06:17;;;;;;;69.27;14.03;;;9.90;1.00;;;;;;5073783;28;20453;-74
2022/11/13 11:08:43;;;;;;;68.30;14.03;;;10.80;1.00;;;;;;5072809;28;20473;-74
2022/11/13 11:14:17;;;;;;;68.00;12.90;;;12.30;1.00;;;;;;5073860;28;20447;-74
2022/11/13 11:16:46;;;;;;;68.07;13.07;;;12.50;1.00;;;;;;5073654;28;20812;-74
2022/11/13 11:19:15;;;;;;;70.33;13.80;;;12.90;1.00;;;;;;5072970;28;20466;-74
2022/11/13 11:21:45;;;;;;;66.17;12.20;;;13.70;99.90;;;;;;5073713;28;20458;-74
2022/11/13 11:24:16;;;;;;;68.30;14.40;;;14.40;99.90;;;;;;5073780;28;20448;-74
2022/11/13 11:26:47;;;;;;;66.60;11.93;;;14.70;99.90;;;;;;5073669;28;20469;-74
2022/11/13 11:29:21;;;;;;;66.63;12.13;;;14.80;99.90;;;;;;5072383;28;20519;-74
2022/11/13 11:31:52;;;;;;;66.60;12.63;;;15.60;99.90;;;;;;5073272;28;20451;-74
2022/11/13 11:34:25;;;;;;;66.10;13.17;;;16.50;99.90;;;;;;5073487;28;20451;-74
2022/11/13 11:37:03;;;;;;;67.47;12.27;;;18.00;99.90;;;;;;5073211;28;20470;-74
2022/11/13 11:39:35;;;;;;;66.17;12.73;;;20.90;99.90;;;;;;5072503;28;20538;-74
2022/11/13 11:42:15;;;;;;;66.60;13.13;;;20.90;99.90;;;;;;5073197;28;20439;-74
2022/11/13 11:45:00;;;;;;;65.30;12.00;;;22.00;99.90;;;;;;5073305;28;20455;-75
2022/11/13 11:47:28;;;;;;;66.30;12.80;;;24.10;99.90;;;;;;5072988;28;20467;-74
2022/11/13 11:49:55;;;;;;;66.20;12.70;;;26.90;99.90;;;;;;5072176;28;20493;-75
2022/11/13 11:52:50;;;;;;;65.60;12.40;;;28.80;99.90;;;;;;5072875;28;20883;-75
2022/11/13 11:55:44;;;;;;;68.77;12.40;;;28.80;99.90;;;;;;5073187;28;20902;-75
2022/11/13 11:58:23;;;;;;;66.20;13.43;;;27.70;99.90;;;;;;5072961;28;20467;-75
2022/11/13 12:00:55;;;;;;;65.03;11.63;;;28.10;99.90;;;;;;5072422;28;20791;-75
2022/11/13 12:03:49;;;;;;;68.10;14.33;;;29.80;99.90;;;;;;5072880;28;20459;-75
2022/11/13 12:06:28;;;;;;;64.83;11.13;;;31.40;99.90;;;;;;5072710;28;20779;-75
2022/11/13 12:09:02;;;;;;;64.23;11.30;;;32.10;99.90;;;;;;5071565;28;20561;-75
2022/11/13 12:11:32;;;;;;;68.47;11.30;;;32.40;99.90;;;;;;5072965;28;20447;-75
2022/11/13 12:14:08;;;;;;;62.77;10.50;;;33.40;99.90;;;;;;5072616;28;20538;-75
2022/11/13 12:16:42;;;;;;;63.73;10.40;;;32.30;99.90;;;;;;5072522;28;20496;-75
2022/11/13 12:19:21;;;;;;;64.17;11.23;;;30.40;99.90;;;;;;5071617;28;20841;-75
2022/11/13 12:21:58;;;;;;;63.27;11.13;;;29.60;99.90;;;;;;5072279;28;20810;-75
2022/11/13 12:24:54;;;;;;;65.47;14.00;;;29.60;99.90;;;;;;5072369;28;20457;-75
2022/11/13 12:27:30;;;;;;;66.57;15.20;;;31.30;99.90;;;;;;5070763;28;20448;-75
2022/11/13 12:30:08;;;;;;;63.03;11.17;;;32.10;99.90;;;;;;5071404;28;20573;-75
2022/11/13 12:32:46;;;;;;;63.53;10.90;;;32.80;99.90;;;;;;5072541;28;20451;-75
2022/11/13 12:35:17;;;;;;;62.60;10.53;;;33.40;99.90;;;;;;5072393;28;20458;-76
2022/11/13 12:37:56;;;;;;;66.37;13.57;;;33.80;99.90;;;;;;5072210;28;20476;-75
2022/11/13 12:40:29;;;;;;;66.80;11.77;;;34.00;99.90;;;;;;5071673;28;20451;-76
2022/11/13 12:43:07;;;;;;;66.43;10.20;;;33.80;99.90;;;;;;5072363;28;20443;-76
2022/11/13 12:45:48;;;;;;;62.57;9.90;;;34.30;99.90;;;;;;5072518;28;20546;-76
2022/11/13 12:48:25;;;;;;;62.20;9.70;;;34.60;99.90;;;;;;5071757;28;20481;-76
2022/11/13 12:50:59;;;;;;;63.20;9.63;;;35.50;99.90;;;;;;5071582;28;20491;-76
2022/11/13 12:53:27;;;;;;;63.17;10.53;;;36.10;99.90;;;;;;5072091;28;20451;-75
2022/11/13 12:56:00;;;;;;;63.57;10.90;;;36.70;99.90;;;;;;5072118;28;20517;-76
2022/11/13 12:58:29;;;;;;;62.67;9.43;;;36.10;99.90;;;;;;5071736;28;20467;-76